createdAt,value
2022-08-19T00:01:30.650Z,51.12
2022-08-19T00:03:59.047Z,51.14
2022-08-19T00:06:27.028Z,51.47
2022-08-19T00:08:53.693Z,51.33
2022-08-19T00:11:25.486Z,51.38
2022-08-19T00:13:53.641Z,51.66
2022-08-19T00:16:26.170Z,51.36
2022-08-19T00:18:56.733Z,51.30
2022-08-19T00:21:30.283Z,51.62
2022-08-19T00:24:01.062Z,51.62
2022-08-19T00:26:29.019Z,51.58
2022-08-19T00:28:56.278Z,51.68
2022-08-19T00:31:23.187Z,51.86
2022-08-19T00:33:53.072Z,51.88
2022-08-19T00:36:19.750Z,51.63
2022-08-19T00:38:47.431Z,51.64
2022-08-19T00:41:16.231Z,51.87
2022-08-19T00:43:43.006Z,51.92
2022-08-19T00:46:10.006Z,51.98
2022-08-19T00:48:37.468Z,52.20
2022-08-19T00:51:06.459Z,51.98
2022-08-19T00:53:34.977Z,52.22
2022-08-19T00:56:03.327Z,51.93
2022-08-19T00:58:34.344Z,52.06
2022-08-19T01:01:01.910Z,52.27
2022-08-19T01:03:28.808Z,52.24
2022-08-19T01:06:07.337Z,52.52
2022-08-19T01:08:34.788Z,52.34
2022-08-19T01:11:01.839Z,52.29
2022-08-19T01:13:49.052Z,52.47
2022-08-19T01:16:20.208Z,52.60
2022-08-19T01:18:47.228Z,52.61
2022-08-19T01:21:23.452Z,52.24
2022-08-19T01:23:50.222Z,52.75
2022-08-19T01:26:20.082Z,52.57
2022-08-19T01:28:48.712Z,52.42
2022-08-19T01:31:27.353Z,53.01
2022-08-19T01:33:56.931Z,52.89
2022-08-19T01:36:28.248Z,52.73
2022-08-19T01:38:55.635Z,52.56
2022-08-19T01:41:24.490Z,53.04
2022-08-19T01:44:13.389Z,53.10
2022-08-19T01:46:40.558Z,52.78
2022-08-19T01:49:09.064Z,52.86
2022-08-19T01:51:38.489Z,52.94
2022-08-19T01:54:08.229Z,52.71
2022-08-19T01:56:34.881Z,53.08
2022-08-19T01:59:09.166Z,52.96
2022-08-19T02:01:35.972Z,53.29
2022-08-19T02:06:19.495Z,53.00
2022-08-19T02:08:53.552Z,53.23
2022-08-19T02:11:34.367Z,53.10
2022-08-19T02:14:04.024Z,52.71
2022-08-19T02:16:31.497Z,53.05
2022-08-19T02:18:58.076Z,52.65
2022-08-19T02:21:25.133Z,53.05
2022-08-19T02:23:51.936Z,53.17
2022-08-19T02:26:20.198Z,52.91
2022-08-19T02:28:47.340Z,53.23
2022-08-19T02:31:17.016Z,53.15
2022-08-19T02:33:43.748Z,52.87
2022-08-19T02:36:11.973Z,53.29
2022-08-19T02:38:38.813Z,53.21
2022-08-19T02:41:09.032Z,53.21
2022-08-19T02:43:39.602Z,53.09
2022-08-19T02:46:25.591Z,52.82
2022-08-19T02:48:54.238Z,52.93
2022-08-19T02:51:31.276Z,52.90
2022-08-19T02:53:58.496Z,52.82
2022-08-19T02:56:28.447Z,53.13
2022-08-19T02:58:56.241Z,53.15
2022-08-19T03:01:32.503Z,52.96
2022-08-19T03:04:01.816Z,53.12
2022-08-19T03:06:29.064Z,53.44
2022-08-19T03:08:56.353Z,53.46
2022-08-19T03:11:30.267Z,53.63
2022-08-19T03:13:58.062Z,53.40
2022-08-19T03:16:26.696Z,53.11
2022-08-19T03:18:54.093Z,53.20
2022-08-19T03:21:24.908Z,53.47
2022-08-19T03:23:55.996Z,53.43
2022-08-19T03:26:22.736Z,53.40
2022-08-19T03:28:51.804Z,53.00
2022-08-19T03:31:44.530Z,53.08
2022-08-19T03:34:27.060Z,53.35
2022-08-19T03:37:01.473Z,53.15
2022-08-19T03:39:28.673Z,53.48
2022-08-19T03:42:32.361Z,53.49
2022-08-19T03:44:49.067Z,53.43
2022-08-19T03:47:17.478Z,53.42
2022-08-19T03:49:44.771Z,53.37
2022-08-19T03:52:11.391Z,53.53
2022-08-19T03:54:39.227Z,53.53
2022-08-19T03:57:06.079Z,53.34
2022-08-19T03:59:35.181Z,53.33
2022-08-19T04:02:09.595Z,53.32
2022-08-19T04:04:38.398Z,53.91
2022-08-19T04:07:05.411Z,53.37
2022-08-19T04:09:32.113Z,53.52
2022-08-19T04:11:59.072Z,53.36
2022-08-19T04:14:29.333Z,53.67
2022-08-19T04:16:56.550Z,53.42
2022-08-19T04:19:24.295Z,53.36
2022-08-19T04:21:54.104Z,53.32
2022-08-19T04:24:21.468Z,53.81
2022-08-19T04:26:49.104Z,53.84
2022-08-19T04:29:22.731Z,53.95
2022-08-19T04:31:50.573Z,53.92
2022-08-19T04:34:19.360Z,53.70
2022-08-19T04:36:46.291Z,53.88
2022-08-19T04:39:17.290Z,53.74
2022-08-19T04:42:03.820Z,54.12
2022-08-19T04:44:33.154Z,54.18
2022-08-19T04:47:01.087Z,54.27
2022-08-19T04:49:28.798Z,53.84
2022-08-19T04:51:56.029Z,53.80
2022-08-19T04:54:38.735Z,53.92
2022-08-19T04:57:10.824Z,54.28
2022-08-19T04:59:39.694Z,54.13
2022-08-19T05:02:08.602Z,54.37
2022-08-19T05:04:36.252Z,54.36
2022-08-19T05:07:03.080Z,54.33
2022-08-19T05:09:52.515Z,53.98
2022-08-19T05:12:18.245Z,54.03
2022-08-19T05:14:46.920Z,54.04
2022-08-19T05:17:34.623Z,53.62
2022-08-19T05:20:20.019Z,53.99
2022-08-19T05:22:48.346Z,53.63
2022-08-19T05:25:19.899Z,53.66
2022-08-19T05:27:46.987Z,53.36
2022-08-19T05:30:14.314Z,53.33
2022-08-19T05:32:41.544Z,52.99
2022-08-19T05:35:09.157Z,53.24
2022-08-19T05:37:35.772Z,53.26
2022-08-19T05:40:02.902Z,52.85
2022-08-19T05:42:29.566Z,53.36
2022-08-19T05:44:57.580Z,53.15
2022-08-19T05:47:24.373Z,53.35
2022-08-19T05:49:51.724Z,53.39
2022-08-19T05:52:25.539Z,53.18
2022-08-19T05:54:55.707Z,53.35
2022-08-19T05:57:22.913Z,53.49
2022-08-19T05:59:53.210Z,53.24
2022-08-19T06:02:32.017Z,53.55
2022-08-19T06:04:58.939Z,53.21
2022-08-19T06:07:26.783Z,52.95
2022-08-19T06:09:59.636Z,53.23
2022-08-19T06:12:35.458Z,53.17
2022-08-19T06:15:11.061Z,53.05
2022-08-19T06:17:38.217Z,53.26
2022-08-19T06:20:06.600Z,53.62
2022-08-19T06:22:41.835Z,53.29
2022-08-19T06:25:10.151Z,53.14
2022-08-19T06:27:42.020Z,53.44
2022-08-19T06:30:15.843Z,53.38
2022-08-19T06:32:43.079Z,53.16
2022-08-19T06:35:11.752Z,52.80
2022-08-19T06:37:43.356Z,52.99
2022-08-19T06:40:12.066Z,53.05
2022-08-19T06:42:39.384Z,52.99
2022-08-19T06:45:11.248Z,52.66
2022-08-19T06:47:38.059Z,52.82
2022-08-19T06:50:05.748Z,52.48
2022-08-19T06:52:36.530Z,52.36
2022-08-19T06:55:06.004Z,52.30
2022-08-19T06:57:34.174Z,52.29
2022-08-19T07:00:03.371Z,52.09
2022-08-19T07:02:30.509Z,52.44
2022-08-19T07:04:58.841Z,51.97
2022-08-19T07:07:25.606Z,51.88
2022-08-19T07:09:59.018Z,51.86
2022-08-19T07:12:29.616Z,51.74
2022-08-19T07:14:57.210Z,51.93
2022-08-19T07:17:24.469Z,52.19
2022-08-19T07:19:51.676Z,52.26
2022-08-19T07:22:24.219Z,52.03
2022-08-19T07:24:52.154Z,51.96
2022-08-19T07:27:24.528Z,51.81
2022-08-19T07:29:56.148Z,51.97
2022-08-19T07:34:46.369Z,51.94
2022-08-19T07:37:13.267Z,52.10
2022-08-19T07:39:40.174Z,52.27
2022-08-19T07:42:09.612Z,52.46
2022-08-19T07:44:37.767Z,52.73
2022-08-19T07:47:05.812Z,52.60
2022-08-19T07:49:32.780Z,52.23
2022-08-19T07:52:03.174Z,52.71
2022-08-19T07:54:35.311Z,52.08
2022-08-19T07:57:02.867Z,52.56
2022-08-19T07:59:29.902Z,52.60
2022-08-19T08:01:57.726Z,52.86
2022-08-19T08:04:42.704Z,53.20
2022-08-19T08:07:31.652Z,53.48
2022-08-19T08:09:58.708Z,53.52
2022-08-19T08:12:34.796Z,53.74
2022-08-19T08:15:08.913Z,54.10
2022-08-19T08:17:49.723Z,54.26
2022-08-19T08:20:20.095Z,54.36
2022-08-19T08:23:07.134Z,54.52
2022-08-19T08:25:36.313Z,54.53
2022-08-19T08:28:04.152Z,54.74
2022-08-19T08:30:33.806Z,54.58
2022-08-19T08:33:02.514Z,54.58
2022-08-19T08:37:51.337Z,54.76
2022-08-19T08:41:05.370Z,54.76
2022-08-19T08:43:35.965Z,54.79
2022-08-19T08:46:08.628Z,54.85
2022-08-19T08:48:57.018Z,55.23
2022-08-19T08:51:33.198Z,55.02
2022-08-19T08:54:05.321Z,55.16
2022-08-19T08:59:13.755Z,55.12
2022-08-19T09:01:40.869Z,55.12
2022-08-19T09:04:12.841Z,55.01
2022-08-19T09:07:18.026Z,55.14
2022-08-19T09:09:53.645Z,54.94
2022-08-19T09:12:35.276Z,55.05
2022-08-19T09:15:07.603Z,54.99
2022-08-19T09:17:39.394Z,55.23
2022-08-19T09:20:26.315Z,55.01
2022-08-19T09:22:53.057Z,54.45
2022-08-19T09:25:26.787Z,54.00
2022-08-19T09:28:02.846Z,53.64
2022-08-19T09:30:33.103Z,53.04
2022-08-19T09:33:00.129Z,53.02
2022-08-19T09:35:32.172Z,52.84
2022-08-19T09:38:16.933Z,52.66
2022-08-19T09:40:43.581Z,52.59
2022-08-19T09:43:13.209Z,52.46
2022-08-19T09:45:41.054Z,52.44
2022-08-19T09:48:11.825Z,52.32
2022-08-19T09:50:52.045Z,52.26
2022-08-19T09:53:19.920Z,52.45
2022-08-19T09:55:46.785Z,52.28
2022-08-19T09:58:13.470Z,52.26
2022-08-19T10:00:40.203Z,52.35
2022-08-19T10:03:07.137Z,52.38
2022-08-19T10:05:50.332Z,52.30
2022-08-19T10:08:27.663Z,52.15
2022-08-19T10:10:55.873Z,52.01
2022-08-19T10:13:26.384Z,52.27
2022-08-19T10:15:56.916Z,52.60
2022-08-19T10:18:25.408Z,52.75
2022-08-19T10:20:54.497Z,52.76
2022-08-19T10:23:22.391Z,52.93
2022-08-19T10:25:50.549Z,52.83
2022-08-19T10:30:49.142Z,53.14
2022-08-19T10:33:16.130Z,53.02
2022-08-19T10:36:10.710Z,53.13
2022-08-19T10:38:38.544Z,52.82
2022-08-19T10:41:11.369Z,53.00
2022-08-19T10:43:39.242Z,53.00
2022-08-19T10:46:13.760Z,52.98
2022-08-19T10:48:42.261Z,52.74
2022-08-19T10:51:27.906Z,52.90
2022-08-19T10:53:56.827Z,52.73
2022-08-19T10:56:42.513Z,52.88
2022-08-19T10:59:10.075Z,52.96
2022-08-19T11:01:36.974Z,52.84
2022-08-19T11:04:05.346Z,52.92
2022-08-19T11:06:35.008Z,52.99
2022-08-19T11:09:01.673Z,52.90
2022-08-19T11:11:29.417Z,53.03
2022-08-19T11:13:56.226Z,52.97
2022-08-19T11:16:26.265Z,52.85
2022-08-19T11:18:59.358Z,52.90
2022-08-19T11:21:38.128Z,52.77
2022-08-19T11:24:10.964Z,52.83
2022-08-19T11:26:39.728Z,52.80
2022-08-19T11:29:12.468Z,52.82
2022-08-19T11:31:41.804Z,52.65
2022-08-19T11:34:13.193Z,52.55
2022-08-19T11:36:43.448Z,52.47
2022-08-19T11:39:11.522Z,52.54
2022-08-19T11:41:38.226Z,52.75
2022-08-19T11:44:05.555Z,52.51
2022-08-19T11:46:32.727Z,52.41
2022-08-19T11:49:01.557Z,52.24
2022-08-19T11:51:28.894Z,52.18
2022-08-19T11:53:57.318Z,52.36
2022-08-19T11:56:28.344Z,52.16
2022-08-19T11:58:57.676Z,52.04
2022-08-19T12:01:26.843Z,52.12
2022-08-19T12:03:56.085Z,52.13
2022-08-19T12:06:36.277Z,52.27
2022-08-19T12:09:08.900Z,52.32
2022-08-19T12:11:37.850Z,52.29
2022-08-19T12:14:04.909Z,52.15
2022-08-19T12:16:32.858Z,52.30
2022-08-19T12:19:04.655Z,52.18
2022-08-19T12:21:33.291Z,52.25
2022-08-19T12:24:01.408Z,52.19
2022-08-19T12:26:30.234Z,52.12
2022-08-19T12:28:56.877Z,52.18
2022-08-19T12:31:23.629Z,52.04
2022-08-19T12:33:50.281Z,52.14
2022-08-19T12:36:18.430Z,52.12
2022-08-19T12:38:45.852Z,52.10
2022-08-19T12:41:18.706Z,52.05
2022-08-19T12:43:46.301Z,51.93
2022-08-19T12:46:13.392Z,52.02
2022-08-19T12:48:42.731Z,51.75
2022-08-19T12:51:11.841Z,51.94
2022-08-19T12:53:39.594Z,52.03
2022-08-19T12:56:08.975Z,51.89
2022-08-19T12:58:40.219Z,52.03
2022-08-19T13:01:09.077Z,51.86
2022-08-19T13:03:40.353Z,52.01
2022-08-19T13:06:09.422Z,52.09
2022-08-19T13:08:36.786Z,51.98
2022-08-19T13:11:15.985Z,51.70
2022-08-19T13:13:45.426Z,51.68
2022-08-19T13:16:13.289Z,51.54
2022-08-19T13:18:41.645Z,51.38
2022-08-19T13:21:10.349Z,51.38
2022-08-19T13:23:37.143Z,51.23
2022-08-19T13:26:06.786Z,51.16
2022-08-19T13:28:53.609Z,50.95
2022-08-19T13:33:46.304Z,51.03
2022-08-19T13:36:14.040Z,50.98
2022-08-19T13:38:41.704Z,51.00
2022-08-19T13:41:12.182Z,50.72
2022-08-19T13:43:41.302Z,50.70
2022-08-19T13:46:14.942Z,50.86
2022-08-19T13:48:41.841Z,50.84
2022-08-19T13:51:12.684Z,50.65
2022-08-19T13:53:40.430Z,50.70
2022-08-19T13:56:10.966Z,50.75
2022-08-19T13:58:38.720Z,50.43
2022-08-19T14:01:06.622Z,50.51
2022-08-19T14:03:34.461Z,50.45
2022-08-19T14:06:01.545Z,50.47
2022-08-19T14:08:29.143Z,50.41
2022-08-19T14:10:56.319Z,50.28
2022-08-19T14:13:24.233Z,50.28
2022-08-19T14:15:51.563Z,50.29
2022-08-19T14:18:18.921Z,50.39
2022-08-19T14:20:45.885Z,50.26
2022-08-19T14:23:13.700Z,50.35
2022-08-19T14:25:40.338Z,50.33
2022-08-19T14:28:08.334Z,50.31
2022-08-19T14:30:38.666Z,50.43
2022-08-19T14:33:06.910Z,51.10
2022-08-19T14:35:37.115Z,51.27
2022-08-19T14:38:05.767Z,52.01
2022-08-19T14:40:32.771Z,52.64
2022-08-19T14:43:04.871Z,52.77
2022-08-19T14:45:37.308Z,52.86
2022-08-19T14:48:06.212Z,52.90
2022-08-19T14:50:33.328Z,53.29
2022-08-19T14:53:12.351Z,52.86
2022-08-19T14:55:42.787Z,53.27
2022-08-19T14:58:09.892Z,53.49
2022-08-19T15:00:57.454Z,53.81
2022-08-19T15:03:24.068Z,53.88
2022-08-19T15:05:50.731Z,53.85
2022-08-19T15:08:17.297Z,54.07
2022-08-19T15:10:44.000Z,53.99
2022-08-19T15:13:10.818Z,54.11
2022-08-19T15:15:38.211Z,54.20
2022-08-19T15:18:07.773Z,54.55
2022-08-19T15:20:34.411Z,54.76
2022-08-19T15:23:01.403Z,54.56
2022-08-19T15:25:28.854Z,54.73
2022-08-19T15:27:55.963Z,54.71
2022-08-19T15:30:27.938Z,54.45
2022-08-19T15:32:55.819Z,54.23
2022-08-19T15:35:24.221Z,54.04
2022-08-19T15:37:52.845Z,54.15
2022-08-19T15:40:21.497Z,53.79
2022-08-19T15:42:49.816Z,53.87
2022-08-19T15:45:18.017Z,53.54
2022-08-19T15:47:44.890Z,53.63
2022-08-19T15:50:23.792Z,53.34
2022-08-19T15:52:53.615Z,53.40
2022-08-19T15:55:33.225Z,53.28
2022-08-19T15:58:28.238Z,53.05
2022-08-19T16:01:20.676Z,52.98
2022-08-19T16:04:14.365Z,53.30
2022-08-19T16:06:53.017Z,53.08
2022-08-19T16:09:26.626Z,52.87
2022-08-19T16:12:01.846Z,52.88
2022-08-19T16:14:30.799Z,53.03
2022-08-19T16:16:57.483Z,52.55
2022-08-19T16:19:25.340Z,52.66
2022-08-19T16:21:54.179Z,52.27
2022-08-19T16:24:24.120Z,51.89
2022-08-19T16:26:52.215Z,52.05
2022-08-19T16:29:33.789Z,51.96
2022-08-19T16:32:09.906Z,51.79
2022-08-19T16:34:38.100Z,51.66
2022-08-19T16:37:04.976Z,51.76
2022-08-19T16:39:32.180Z,51.78
2022-08-19T16:41:59.845Z,51.71
2022-08-19T16:44:29.822Z,51.63
2022-08-19T16:46:59.527Z,51.65
2022-08-19T16:49:53.915Z,51.45
2022-08-19T16:52:18.405Z,51.68
2022-08-19T16:54:48.142Z,51.76
2022-08-19T16:57:15.031Z,51.45
2022-08-19T16:59:43.833Z,51.63
2022-08-19T17:02:15.413Z,51.31
2022-08-19T17:04:42.315Z,51.31
2022-08-19T17:07:09.987Z,51.47
2022-08-19T17:09:37.976Z,51.14
2022-08-19T17:12:05.479Z,51.30
2022-08-19T17:14:32.184Z,51.32
2022-08-19T17:16:58.763Z,51.45
2022-08-19T17:19:25.356Z,51.45
2022-08-19T17:21:52.424Z,51.25
2022-08-19T17:24:19.032Z,51.11
2022-08-19T17:26:46.072Z,51.11
2022-08-19T17:29:12.670Z,51.15
2022-08-19T17:31:39.288Z,50.95
2022-08-19T17:34:05.945Z,50.82
2022-08-19T17:36:34.093Z,50.80
2022-08-19T17:39:04.559Z,50.92
2022-08-19T17:41:34.194Z,50.86
2022-08-19T17:44:01.901Z,50.59
2022-08-19T17:46:30.028Z,50.10
2022-08-19T17:48:57.845Z,49.73
2022-08-19T17:51:40.280Z,49.50
2022-08-19T17:54:10.750Z,49.38
2022-08-19T17:56:38.076Z,49.17
2022-08-19T17:59:06.223Z,49.06
2022-08-19T18:01:52.658Z,48.55
2022-08-19T18:04:21.913Z,48.57
2022-08-19T18:06:52.982Z,48.91
2022-08-19T18:09:41.549Z,48.93
2022-08-19T18:12:16.326Z,48.52
2022-08-19T18:14:43.098Z,48.77
2022-08-19T18:17:12.412Z,48.47
2022-08-19T18:19:42.750Z,48.42
2022-08-19T18:22:13.000Z,48.40
2022-08-19T18:24:41.673Z,48.46
2022-08-19T18:27:08.739Z,48.42
2022-08-19T18:29:38.510Z,48.98
2022-08-19T18:32:06.995Z,48.82
2022-08-19T18:34:36.388Z,48.88
2022-08-19T18:37:03.206Z,48.62
2022-08-19T18:39:48.207Z,48.79
2022-08-19T18:42:36.969Z,48.62
2022-08-19T18:45:24.220Z,48.95
2022-08-19T18:48:26.794Z,48.89
2022-08-19T18:50:59.675Z,48.96
2022-08-19T18:53:29.599Z,48.89
2022-08-19T18:55:57.593Z,48.76
2022-08-19T18:58:31.998Z,48.39
2022-08-19T19:00:59.673Z,48.61
2022-08-19T19:03:26.891Z,48.91
2022-08-19T19:05:54.123Z,49.08
2022-08-19T19:10:51.173Z,49.60
2022-08-19T19:13:18.062Z,49.95
2022-08-19T19:15:44.734Z,50.05
2022-08-19T19:18:13.446Z,50.18
2022-08-19T19:20:42.923Z,50.25
2022-08-19T19:23:09.656Z,50.45
2022-08-19T19:25:49.912Z,50.61
2022-08-19T19:28:20.805Z,50.63
2022-08-19T19:30:47.393Z,50.96
2022-08-19T19:33:14.080Z,50.72
2022-08-19T19:35:45.740Z,51.09
2022-08-19T19:38:14.105Z,51.42
2022-08-19T19:40:40.825Z,51.44
2022-08-19T19:43:10.705Z,51.57
2022-08-19T19:45:38.027Z,51.47
2022-08-19T19:48:05.430Z,51.75
2022-08-19T19:52:58.625Z,51.95
2022-08-19T19:55:26.640Z,52.23
2022-08-19T19:57:54.369Z,52.14
2022-08-19T20:00:22.221Z,52.16
2022-08-19T20:02:50.817Z,52.17
2022-08-19T20:05:22.141Z,52.35
2022-08-19T20:08:08.913Z,52.59
2022-08-19T20:10:36.676Z,53.43
2022-08-19T20:13:04.837Z,52.87
2022-08-19T20:15:32.286Z,53.17
2022-08-19T20:18:00.808Z,53.12
2022-08-19T20:20:28.219Z,53.33
2022-08-19T20:22:55.117Z,53.35
2022-08-19T20:25:22.426Z,53.19
2022-08-19T20:27:50.184Z,53.25
2022-08-19T20:30:20.208Z,52.95
2022-08-19T20:32:48.825Z,53.04
2022-08-19T20:35:20.508Z,52.91
2022-08-19T20:37:48.222Z,52.94
2022-08-19T20:40:16.332Z,52.81
2022-08-19T20:42:47.323Z,52.59
2022-08-19T20:45:33.682Z,52.69
2022-08-19T20:48:03.380Z,52.65
2022-08-19T20:50:32.457Z,52.56
2022-08-19T20:52:59.729Z,52.53
2022-08-19T20:55:27.338Z,52.61
2022-08-19T20:57:54.984Z,52.43
2022-08-19T21:00:21.782Z,52.41
2022-08-19T21:02:48.418Z,52.28
2022-08-19T21:05:15.234Z,52.21
2022-08-19T21:07:42.811Z,52.20
2022-08-19T21:10:09.432Z,52.21
2022-08-19T21:12:36.647Z,52.15
2022-08-19T21:15:04.759Z,51.96
2022-08-19T21:17:31.597Z,52.14
2022-08-19T21:19:58.266Z,52.19
2022-08-19T21:22:24.843Z,52.17
2022-08-19T21:24:51.653Z,52.07
2022-08-19T21:27:18.296Z,51.99
2022-08-19T21:32:06.587Z,51.67
2022-08-19T21:34:34.220Z,51.66
2022-08-19T21:37:00.818Z,51.57
2022-08-19T21:39:27.587Z,51.46
2022-08-19T21:41:54.412Z,51.37
2022-08-19T21:44:21.357Z,51.25
2022-08-19T21:46:50.432Z,51.23
2022-08-19T21:49:17.620Z,51.25
2022-08-19T21:51:44.197Z,51.19
2022-08-19T21:54:13.973Z,51.24
2022-08-19T21:56:41.888Z,51.17
2022-08-19T21:59:08.747Z,51.26
2022-08-19T22:01:36.024Z,51.29
2022-08-19T22:04:02.639Z,51.25
2022-08-19T22:06:29.251Z,51.35
2022-08-19T22:08:55.908Z,51.27
2022-08-19T22:11:27.435Z,51.41
2022-08-19T22:13:55.932Z,51.48
2022-08-19T22:16:24.028Z,51.59
2022-08-19T22:18:51.556Z,51.55
2022-08-19T22:21:34.552Z,51.51
2022-08-19T22:24:10.261Z,51.65
2022-08-19T22:26:37.013Z,51.67
2022-08-19T22:29:03.827Z,51.81
2022-08-19T22:31:31.267Z,51.78
2022-08-19T22:33:58.426Z,51.63
2022-08-19T22:36:26.957Z,51.79
2022-08-19T22:38:55.485Z,51.51
2022-08-19T22:41:22.065Z,51.82
2022-08-19T22:43:48.709Z,51.85
2022-08-19T22:46:17.552Z,52.13
2022-08-19T22:48:45.427Z,52.17
2022-08-19T22:53:42.111Z,52.54
2022-08-19T22:56:14.612Z,52.62
2022-08-19T22:58:42.343Z,52.88
2022-08-19T23:01:11.134Z,52.87
2022-08-19T23:03:42.132Z,52.94
2022-08-19T23:06:08.958Z,52.93
2022-08-19T23:08:39.733Z,52.86
2022-08-19T23:11:06.830Z,52.77
2022-08-19T23:13:33.751Z,52.91
2022-08-19T23:16:00.445Z,52.85
2022-08-19T23:18:27.622Z,53.00
2022-08-19T23:20:54.629Z,53.00
2022-08-19T23:23:24.813Z,52.98
2022-08-19T23:25:53.637Z,52.97
2022-08-19T23:28:39.807Z,53.04
2022-08-19T23:31:07.720Z,52.98
2022-08-19T23:33:51.554Z,52.79
2022-08-19T23:36:20.492Z,52.81
2022-08-19T23:38:49.336Z,53.15
2022-08-19T23:41:17.544Z,53.48
2022-08-19T23:43:44.382Z,53.43
2022-08-19T23:46:14.732Z,53.64
2022-08-19T23:48:55.505Z,53.92
2022-08-19T23:51:22.460Z,54.09
2022-08-19T23:53:49.197Z,54.02
2022-08-19T23:56:15.804Z,54.14
2022-08-19T23:58:42.674Z,54.22
